Time,TemperatureF,DewpointF,PressureIn,WindDirection,WindDirectionDegrees,WindSpeedMPH,WindSpeedGustMPH,Humidity,HourlyPrecipIn,Conditions,Clouds,dailyrainin,SolarRadiationWatts/m^2,SoftwareType,DateUTC
2013-02-13 00:02:00,46.0,30.0,29.52,NNW,338,2.0,5.0,54,0.00,,,0.00,0.000000,,2013-02-13 05:02:00,
2013-02-13 00:12:00,46.0,30.0,29.52,NNW,338,2.0,5.0,54,0.00,,,0.00,0.000000,,2013-02-13 05:12:00,
2013-02-13 00:32:00,48.0,31.0,29.53,NW,325,4.0,7.0,52,0.00,,,0.00,0.000000,,2013-02-13 05:32:00,
2013-02-13 00:42:00,48.0,31.0,29.53,NW,325,4.0,7.0,52,0.00,,,0.00,0.000000,,2013-02-13 05:42:00,
2013-02-13 00:52:00,48.0,31.0,29.53,NW,325,4.0,7.0,52,0.00,,,0.00,0.000000,,2013-02-13 05:52:00,
2013-02-13 01:02:00,48.0,31.0,29.53,NW,325,4.0,7.0,52,0.00,,,0.00,0.000000,,2013-02-13 06:02:00,
2013-02-13 01:11:00,48.0,31.0,29.53,NW,325,4.0,7.0,52,0.00,,,0.00,0.000000,,2013-02-13 06:11:00,
2013-02-13 01:32:00,44.0,33.0,29.49,East,90,1.0,6.0,66,0.00,,,0.00,0.000000,,2013-02-13 06:32:00,
2013-02-13 01:42:00,44.0,33.0,29.49,East,90,1.0,6.0,66,0.00,,,0.00,0.000000,,2013-02-13 06:42:00,
2013-02-13 01:52:00,44.0,33.0,29.49,East,90,1.0,6.0,66,0.00,,,0.00,0.000000,,2013-02-13 06:52:00,
2013-02-13 02:02:00,44.0,33.0,29.49,East,90,1.0,6.0,66,0.00,,,0.00,0.000000,,2013-02-13 07:02:00,
2013-02-13 02:11:00,44.0,33.0,29.49,East,90,1.0,6.0,66,0.00,,,0.00,0.000000,,2013-02-13 07:11:00,
2013-02-13 02:42:00,44.0,34.0,29.44,NE,39,3.0,4.0,68,0.00,,,0.00,0.000000,,2013-02-13 07:42:00,
2013-02-13 02:52:00,44.0,34.0,29.44,NE,39,3.0,4.0,68,0.00,,,0.00,0.000000,,2013-02-13 07:52:00,
2013-02-13 03:01:00,44.0,34.0,29.44,NE,39,3.0,4.0,68,0.00,,,0.00,0.000000,,2013-02-13 08:01:00,
2013-02-13 03:11:00,44.0,34.0,29.44,NE,39,3.0,4.0,68,0.00,,,0.00,0.000000,,2013-02-13 08:11:00,
2013-02-13 03:43:00,43.0,41.0,29.43,ENE,71,2.0,6.0,93,0.03,,,0.03,0.000000,,2013-02-13 08:43:00,
2013-02-13 03:52:00,43.0,41.0,29.43,ENE,71,2.0,6.0,93,0.03,,,0.03,0.000000,,2013-02-13 08:52:00,
2013-02-13 04:02:00,43.0,41.0,29.43,ENE,71,2.0,6.0,93,0.03,,,0.03,0.000000,,2013-02-13 09:02:00,
2013-02-13 04:11:00,43.0,41.0,29.43,ENE,71,2.0,6.0,93,0.03,,,0.03,0.000000,,2013-02-13 09:11:00,
2013-02-13 04:42:00,43.0,43.0,29.41,NNE,21,1.0,4.0,100,0.03,,,0.06,0.000000,,2013-02-13 09:42:00,
2013-02-13 04:52:00,43.0,43.0,29.41,NNE,21,1.0,4.0,100,0.03,,,0.06,0.000000,,2013-02-13 09:52:00,
2013-02-13 05:01:00,43.0,43.0,29.41,NNE,21,1.0,4.0,100,0.03,,,0.06,0.000000,,2013-02-13 10:01:00,
2013-02-13 05:11:00,43.0,43.0,29.41,NNE,21,1.0,4.0,100,0.03,,,0.06,0.000000,,2013-02-13 10:11:00,
2013-02-13 05:42:00,43.0,43.0,29.41,SSW,212,3.0,6.0,100,0.11,,,0.17,0.000000,,2013-02-13 10:42:00,
2013-02-13 05:52:00,43.0,43.0,29.41,SSW,212,3.0,6.0,100,0.11,,,0.17,0.000000,,2013-02-13 10:52:00,
2013-02-13 06:01:00,43.0,43.0,29.41,SSW,212,3.0,6.0,100,0.11,,,0.17,0.000000,,2013-02-13 11:01:00,
2013-02-13 06:11:00,43.0,43.0,29.41,SSW,212,3.0,6.0,100,0.11,,,0.17,0.000000,,2013-02-13 11:11:00,
2013-02-13 06:32:00,43.0,43.0,29.41,West,262,2.0,6.0,100,0.05,,,0.22,0.000000,,2013-02-13 11:32:00,
2013-02-13 06:42:00,43.0,43.0,29.41,West,262,2.0,6.0,100,0.05,,,0.22,0.000000,,2013-02-13 11:42:00,
2013-02-13 06:52:00,43.0,43.0,29.41,West,262,2.0,6.0,100,0.05,,,0.22,0.000000,,2013-02-13 11:52:00,
2013-02-13 07:02:00,43.0,43.0,29.41,West,262,2.0,6.0,100,0.05,,,0.22,0.000000,,2013-02-13 12:02:00,
2013-02-13 07:11:00,43.0,43.0,29.41,West,262,2.0,6.0,100,0.05,,,0.22,0.000000,,2013-02-13 12:11:00,
2013-02-13 07:42:00,41.0,41.0,29.41,SE,141,1.0,4.0,100,0.04,,,0.26,0.000000,,2013-02-13 12:42:00,
2013-02-13 07:52:00,41.0,41.0,29.41,SE,141,1.0,4.0,100,0.04,,,0.26,0.000000,,2013-02-13 12:52:00,
2013-02-13 08:02:00,41.0,41.0,29.41,SE,141,1.0,4.0,100,0.04,,,0.26,0.000000,,2013-02-13 13:02:00,
2013-02-13 08:11:00,41.0,41.0,29.41,SE,141,1.0,4.0,100,0.04,,,0.26,0.000000,,2013-02-13 13:11:00,
2013-02-13 08:42:00,43.0,43.0,29.40,NE,54,2.0,4.0,100,0.01,,,0.27,8.000000,,2013-02-13 13:42:00,
2013-02-13 08:52:00,43.0,43.0,29.40,NE,54,2.0,4.0,100,0.01,,,0.27,8.000000,,2013-02-13 13:52:00,
2013-02-13 09:01:00,43.0,43.0,29.40,NE,54,2.0,4.0,100,0.01,,,0.27,8.000000,,2013-02-13 14:01:00,
2013-02-13 09:11:00,43.0,43.0,29.40,NE,54,2.0,4.0,100,0.01,,,0.27,8.000000,,2013-02-13 14:11:00,
2013-02-13 09:42:00,43.0,43.0,29.41,NE,37,2.0,5.0,100,0.01,,,0.28,19.000000,,2013-02-13 14:42:00,
2013-02-13 09:52:00,43.0,43.0,29.41,NE,37,2.0,5.0,100,0.01,,,0.28,19.000000,,2013-02-13 14:52:00,
2013-02-13 10:02:00,43.0,43.0,29.41,NE,37,2.0,5.0,100,0.01,,,0.28,19.000000,,2013-02-13 15:02:00,
2013-02-13 10:11:00,43.0,43.0,29.41,NE,37,2.0,5.0,100,0.01,,,0.28,19.000000,,2013-02-13 15:11:00,
2013-02-13 10:42:00,42.0,42.0,29.35,East,93,4.0,8.0,100,0.01,,,0.29,42.000000,,2013-02-13 15:42:00,
2013-02-13 10:52:00,42.0,42.0,29.35,East,93,4.0,8.0,100,0.01,,,0.29,42.000000,,2013-02-13 15:52:00,
2013-02-13 11:02:00,42.0,42.0,29.35,East,93,4.0,8.0,100,0.01,,,0.29,42.000000,,2013-02-13 16:02:00,
2013-02-13 11:11:00,42.0,42.0,29.35,East,93,4.0,8.0,100,0.01,,,0.29,42.000000,,2013-02-13 16:11:00,
2013-02-13 11:42:00,45.0,45.0,29.34,East,90,4.0,9.0,100,0.00,,,0.29,63.000000,,2013-02-13 16:42:00,
2013-02-13 11:52:00,45.0,45.0,29.34,East,90,4.0,9.0,100,0.00,,,0.29,63.000000,,2013-02-13 16:52:00,
2013-02-13 12:02:00,45.0,45.0,29.34,East,90,4.0,9.0,100,0.00,,,0.29,63.000000,,2013-02-13 17:02:00,
2013-02-13 12:11:00,45.0,45.0,29.34,East,90,4.0,9.0,100,0.00,,,0.29,63.000000,,2013-02-13 17:11:00,
2013-02-13 12:42:00,44.0,44.0,29.28,East,91,4.0,9.0,99,0.01,,,0.30,84.000000,,2013-02-13 17:42:00,
2013-02-13 12:52:00,44.0,44.0,29.28,East,91,4.0,9.0,99,0.01,,,0.30,84.000000,,2013-02-13 17:52:00,
2013-02-13 13:02:00,44.0,44.0,29.28,East,91,4.0,9.0,99,0.01,,,0.30,84.000000,,2013-02-13 18:02:00,
2013-02-13 13:11:00,44.0,44.0,29.28,East,91,4.0,9.0,99,0.01,,,0.30,84.000000,,2013-02-13 18:11:00,
2013-02-13 13:42:00,44.0,44.0,29.25,South,179,2.0,9.0,100,0.00,,,0.30,58.000000,,2013-02-13 18:42:00,
2013-02-13 13:52:00,44.0,44.0,29.25,South,179,2.0,9.0,100,0.00,,,0.30,58.000000,,2013-02-13 18:52:00,
2013-02-13 14:01:00,44.0,44.0,29.25,South,179,2.0,9.0,100,0.00,,,0.30,58.000000,,2013-02-13 19:01:00,
2013-02-13 14:11:00,44.0,44.0,29.25,South,179,2.0,9.0,100,0.00,,,0.30,58.000000,,2013-02-13 19:11:00,
2013-02-13 14:42:00,46.0,46.0,29.22,South,180,2.0,5.0,100,0.00,,,0.30,61.000000,,2013-02-13 19:42:00,
2013-02-13 14:52:00,46.0,46.0,29.22,South,180,2.0,5.0,100,0.00,,,0.30,61.000000,,2013-02-13 19:52:00,
2013-02-13 15:02:00,46.0,46.0,29.22,South,180,2.0,5.0,100,0.00,,,0.30,61.000000,,2013-02-13 20:02:00,
2013-02-13 15:11:00,46.0,46.0,29.22,South,180,2.0,5.0,100,0.00,,,0.30,61.000000,,2013-02-13 20:11:00,
2013-02-13 15:42:00,45.0,45.0,29.22,SSW,200,3.0,7.0,100,0.00,,,0.30,59.000000,,2013-02-13 20:42:00,
2013-02-13 15:52:00,45.0,45.0,29.22,SSW,200,3.0,7.0,100,0.00,,,0.30,59.000000,,2013-02-13 20:52:00,
2013-02-13 16:02:00,45.0,45.0,29.22,SSW,200,3.0,7.0,100,0.00,,,0.30,59.000000,,2013-02-13 21:02:00,
2013-02-13 16:11:00,45.0,45.0,29.22,SSW,200,3.0,7.0,100,0.00,,,0.30,59.000000,,2013-02-13 21:11:00,
2013-02-13 16:43:00,45.0,45.0,29.22,SW,226,5.0,9.0,100,0.01,,,0.31,44.000000,,2013-02-13 21:43:00,
2013-02-13 16:52:00,45.0,45.0,29.22,SW,226,5.0,9.0,100,0.01,,,0.31,44.000000,,2013-02-13 21:52:00,
2013-02-13 17:02:00,45.0,45.0,29.22,SW,226,5.0,9.0,100,0.01,,,0.31,44.000000,,2013-02-13 22:02:00,
2013-02-13 17:11:00,45.0,45.0,29.22,SW,226,5.0,9.0,100,0.01,,,0.31,44.000000,,2013-02-13 22:11:00,
2013-02-13 17:42:00,45.0,45.0,29.23,West,261,4.0,11.0,100,0.00,,,0.31,19.000000,,2013-02-13 22:42:00,
2013-02-13 17:52:00,45.0,45.0,29.23,West,261,4.0,11.0,100,0.00,,,0.31,19.000000,,2013-02-13 22:52:00,
2013-02-13 18:02:00,45.0,45.0,29.23,West,261,4.0,11.0,100,0.00,,,0.31,19.000000,,2013-02-13 23:02:00,
2013-02-13 18:11:00,45.0,45.0,29.23,West,261,4.0,11.0,100,0.00,,,0.31,19.000000,,2013-02-13 23:11:00,
2013-02-13 18:42:00,45.0,45.0,29.25,WSW,258,4.0,10.0,100,0.00,,,0.31,4.000000,,2013-02-13 23:42:00,
2013-02-13 18:53:00,45.0,45.0,29.25,WSW,258,4.0,10.0,100,0.00,,,0.31,4.000000,,2013-02-13 23:53:00,
2013-02-13 19:02:00,45.0,45.0,29.25,WSW,258,4.0,10.0,100,0.00,,,0.31,4.000000,,2013-02-14 00:02:00,
2013-02-13 19:11:00,45.0,45.0,29.25,WSW,258,4.0,10.0,100,0.00,,,0.31,4.000000,,2013-02-14 00:11:00,
2013-02-13 19:43:00,45.0,45.0,29.28,West,266,5.0,12.0,100,0.00,,,0.31,0.000000,,2013-02-14 00:43:00,
2013-02-13 19:52:00,45.0,45.0,29.28,West,266,5.0,12.0,100,0.00,,,0.31,0.000000,,2013-02-14 00:52:00,
2013-02-13 20:01:00,45.0,45.0,29.28,West,266,5.0,12.0,100,0.00,,,0.31,0.000000,,2013-02-14 01:01:00,
2013-02-13 20:11:00,45.0,45.0,29.28,West,266,5.0,12.0,100,0.00,,,0.31,0.000000,,2013-02-14 01:11:00,
2013-02-13 20:42:00,47.0,46.0,29.29,West,273,6.0,18.0,98,0.00,,,-99.99,0.000000,,2013-02-14 01:42:00,
2013-02-13 20:52:00,47.0,46.0,29.29,West,273,6.0,18.0,98,0.00,,,-99.99,0.000000,,2013-02-14 01:52:00,
2013-02-13 21:02:00,47.0,46.0,29.29,West,273,6.0,18.0,98,0.00,,,-99.99,0.000000,,2013-02-14 02:02:00,
2013-02-13 21:11:00,47.0,46.0,29.29,West,273,6.0,18.0,98,0.00,,,-99.99,0.000000,,2013-02-14 02:11:00,
2013-02-13 22:02:00,45.0,44.0,29.33,West,275,6.0,20.0,96,0.00,,,0.31,0.000000,,2013-02-14 03:02:00,
2013-02-13 22:11:00,45.0,44.0,29.33,West,275,6.0,20.0,96,0.00,,,0.31,0.000000,,2013-02-14 03:11:00,
2013-02-13 22:42:00,45.0,39.0,29.36,WNW,293,7.0,19.0,79,0.00,,,0.31,0.000000,,2013-02-14 03:42:00,
2013-02-13 23:01:00,45.0,39.0,29.36,WNW,293,7.0,19.0,79,0.00,,,0.31,0.000000,,2013-02-14 04:01:00,
2013-02-13 23:12:00,45.0,39.0,29.36,WNW,293,7.0,19.0,79,0.00,,,0.31,0.000000,,2013-02-14 04:12:00,
2013-02-13 23:32:00,42.0,33.0,29.39,SE,136,23.0,41.0,71,0.00,,,0.31,0.000000,,2013-02-14 04:32:00,
2013-02-13 23:42:00,42.0,33.0,29.39,SE,136,23.0,41.0,71,0.00,,,0.31,0.000000,,2013-02-14 04:42:00,
2013-02-13 23:52:00,42.0,33.0,29.39,SE,136,23.0,41.0,71,0.00,,,0.31,0.000000,,2013-02-14 04:52:00,